Time;durP1;ratioP1;P1;durP2;ratioP2;P2;SDS_P1;SDS_P2;PMS_P1;PMS_P2;Temp;Humidity;BMP_temperature;BMP_pressure;BME280_temperature;BME280_humidity;BME280_pressure;Samples;Min_cycle;Max_cycle;Signal;HPM_P1;HPM_P2
2021/12/17 00:03:19;;;;;;;38.40;19.55;;;;;;;7.90;100.00;101991.75;8149259;29;20757;-80
2021/12/17 00:06:58;;;;;;;40.35;19.02;;;;;;;7.91;100.00;101990.72;8158059;29;20056;-79
2021/12/17 00:11:00;;;;;;;42.60;19.10;;;;;;;7.92;100.00;101991.59;8156953;29;20102;-80
2021/12/17 00:15:01;;;;;;;38.93;20.60;;;;;;;7.87;100.00;101983.03;8137909;29;20051;-80
2021/12/17 00:43:48;;;;;;;40.78;19.63;;;;;;;7.92;100.00;101970.47;8149092;29;20049;-80
2021/12/17 00:48:45;;;;;;;43.25;19.73;;;;;;;7.90;100.00;101979.91;8154044;29;20599;-80
2021/12/17 00:52:46;;;;;;;46.85;20.77;;;;;;;7.87;100.00;101975.63;8152644;29;20068;-79
2021/12/17 00:56:49;;;;;;;49.05;21.38;;;;;;;7.84;100.00;101977.88;8142441;29;20042;-80
2021/12/17 01:00:49;;;;;;;40.45;19.05;;;;;;;7.83;100.00;101976.19;8138622;29;20052;-80
2021/12/17 01:05:00;;;;;;;42.72;18.45;;;;;;;7.86;100.00;101986.81;8121115;29;20048;-80
2021/12/17 01:09:04;;;;;;;48.45;21.08;;;;;;;7.84;100.00;101978.75;8151488;29;20481;-81
2021/12/17 01:13:07;;;;;;;43.33;19.30;;;;;;;7.84;100.00;101977.88;8128867;29;20040;-80
2021/12/17 01:17:21;;;;;;;39.25;18.55;;;;;;;7.84;100.00;101980.63;8141445;29;20070;-80
2021/12/17 01:35:26;;;;;;;38.00;16.65;;;;;;;7.82;100.00;101991.78;8134413;29;20051;-81
2021/12/17 01:41:02;;;;;;;40.35;17.33;;;;;;;7.79;100.00;101986.66;8134256;29;20046;-81
2021/12/17 01:43:58;;;;;;;33.65;16.25;;;;;;;7.80;100.00;101984.78;8141137;29;20126;-80
2021/12/17 01:48:02;;;;;;;34.95;15.90;;;;;;;7.80;100.00;101984.78;8147150;29;20063;-81
2021/12/17 01:56:37;;;;;;;26.27;14.45;;;;;;;7.79;100.00;101992.13;8135685;29;20039;-82
2021/12/17 02:00:40;;;;;;;29.88;14.55;;;;;;;7.80;100.00;101982.03;8139633;29;20123;-82
2021/12/17 02:04:41;;;;;;;35.05;15.55;;;;;;;7.79;100.00;101985.78;8149586;29;20042;-81
2021/12/17 02:08:45;;;;;;;32.10;14.60;;;;;;;7.78;100.00;101984.94;8142175;29;20067;-82
2021/12/17 02:34:58;;;;;;;29.40;14.02;;;;;;;7.73;100.00;101968.16;8143541;29;20139;-81
2021/12/17 02:39:26;;;;;;;28.40;14.43;;;;;;;7.68;100.00;101968.69;8149378;29;20497;-81
2021/12/17 02:47:56;;;;;;;24.80;12.30;;;;;;;7.65;100.00;101974.53;8144098;29;20036;-82
2021/12/17 02:51:58;;;;;;;23.93;11.37;;;;;;;7.64;100.00;101963.72;8135663;29;20044;-81
2021/12/17 02:56:03;;;;;;;24.35;12.18;;;;;;;7.65;100.00;101970.94;8138612;29;20066;-80
2021/12/17 03:00:07;;;;;;;19.00;9.90;;;;;;;7.65;100.00;101973.69;8156374;29;20039;-81
2021/12/17 03:04:08;;;;;;;12.55;6.90;;;;;;;7.61;100.00;101973.16;8136561;29;20091;-80
2021/12/17 03:08:15;;;;;;;12.40;6.20;;;;;;;7.65;98.84;101985.53;8129868;29;20074;-81
2021/12/17 03:12:23;;;;;;;15.02;6.75;;;;;;;7.64;98.41;101980.19;8142804;28;20039;-81
2021/12/17 03:16:42;;;;;;;12.55;6.57;;;;;;;7.62;98.21;101980.38;8127917;29;20044;-81
2021/12/17 03:25:05;;;;;;;11.18;5.78;;;;;;;7.63;98.82;101978.50;8146170;29;20056;-81
2021/12/17 03:29:08;;;;;;;9.63;4.93;;;;;;;7.63;99.11;101982.09;8149177;29;20056;-81
2021/12/17 03:33:11;;;;;;;8.68;4.30;;;;;;;7.60;97.95;101982.44;8138612;29;20136;-80
2021/12/17 03:37:12;;;;;;;9.35;4.97;;;;;;;7.62;98.00;101980.38;8152836;29;20040;-81
2021/12/17 03:41:35;;;;;;;11.23;5.55;;;;;;;7.63;98.16;101976.59;8149961;29;20038;-80
2021/12/17 03:45:39;;;;;;;12.23;6.75;;;;;;;7.63;98.13;101978.50;8132485;29;20485;-80
2021/12/17 03:49:48;;;;;;;13.52;5.88;;;;;;;7.63;98.08;101967.53;8166497;29;20039;-82
2021/12/17 03:53:52;;;;;;;13.68;6.05;;;;;;;7.63;97.47;101964.78;8148297;29;20100;-81
2021/12/17 03:57:54;;;;;;;13.77;6.80;;;;;;;7.61;97.67;101961.34;8157069;29;20068;-81
2021/12/17 04:01:54;;;;;;;12.13;6.55;;;;;;;7.60;97.73;101963.25;8134904;29;20055;-81
2021/12/17 04:05:55;;;;;;;13.57;6.10;;;;;;;7.58;97.93;101962.56;8139348;28;20043;-81
2021/12/17 04:10:18;;;;;;;7.15;4.13;;;;;;;7.49;97.51;101949.91;8156524;29;20052;-80
2021/12/17 04:14:32;;;;;;;7.93;3.50;;;;;;;7.36;97.37;101946.88;8146970;29;20039;-81
2021/12/17 04:18:36;;;;;;;8.98;3.92;;;;;;;7.22;97.92;101941.06;8149061;29;20043;-81
2021/12/17 04:22:37;;;;;;;8.32;3.60;;;;;;;7.04;98.39;101930.31;8146911;29;20095;-82
2021/12/17 04:26:38;;;;;;;9.05;3.78;;;;;;;6.87;98.27;101927.78;8148165;29;20481;-81
2021/12/17 04:30:47;;;;;;;11.02;4.10;;;;;;;6.68;98.41;101915.31;8122447;29;20035;-82
2021/12/17 04:34:48;;;;;;;11.63;4.55;;;;;;;6.48;98.94;101920.28;8141027;29;20039;-80
2021/12/17 04:38:52;;;;;;;8.63;4.25;;;;;;;6.22;99.01;101917.75;8150043;29;20043;-80
2021/12/17 04:59:59;;;;;;;7.43;3.90;;;;;;;5.11;100.00;101917.84;8133924;29;20050;-80
2021/12/17 05:04:01;;;;;;;9.52;4.78;;;;;;;4.96;100.00;101910.25;8133873;29;20047;-79
2021/12/17 05:08:07;;;;;;;11.13;4.78;;;;;;;4.83;100.00;101920.75;8137595;29;20048;-80
2021/12/17 05:24:45;;;;;;;10.40;4.55;;;;;;;4.36;100.00;101920.22;8149213;29;20508;-81
2021/12/17 05:28:47;;;;;;;10.20;4.43;;;;;;;4.29;100.00;101920.00;8130995;29;20429;-81
2021/12/17 05:32:47;;;;;;;10.18;4.43;;;;;;;4.23;100.00;101942.47;8133342;29;20036;-81
2021/12/17 05:36:48;;;;;;;8.98;4.05;;;;;;;4.17;100.00;101938.50;8131960;29;20465;-81
2021/12/17 05:40:55;;;;;;;10.00;4.57;;;;;;;4.14;100.00;101936.09;8127226;29;20752;-82
2021/12/17 05:44:59;;;;;;;8.57;4.33;;;;;;;4.10;100.00;101941.00;8116557;29;20040;-82
2021/12/17 05:49:00;;;;;;;9.82;5.18;;;;;;;4.07;100.00;101943.16;8145236;29;20161;-79
2021/12/17 05:53:02;;;;;;;10.40;4.60;;;;;;;4.06;100.00;101945.03;8141439;29;20044;-80
2021/12/17 05:57:03;;;;;;;8.83;4.87;;;;;;;4.04;100.00;101938.00;8128543;29;20050;-80
2021/12/17 06:01:06;;;;;;;12.57;4.60;;;;;;;3.98;100.00;101935.91;8129109;29;20337;-81
2021/12/17 06:05:21;;;;;;;10.15;5.07;;;;;;;3.93;100.00;101938.25;8140374;29;20099;-80
2021/12/17 06:09:23;;;;;;;10.30;5.13;;;;;;;3.88;100.00;101939.56;8128524;29;20039;-81
2021/12/17 06:13:24;;;;;;;10.77;5.45;;;;;;;3.85;100.00;101947.19;8129903;29;20047;-81
2021/12/17 06:17:25;;;;;;;15.10;7.20;;;;;;;3.84;100.00;101948.22;8121930;29;20063;-81
2021/12/17 06:21:26;;;;;;;15.73;7.57;;;;;;;3.82;100.00;101951.09;8147875;29;20043;-79
2021/12/17 06:25:28;;;;;;;20.42;10.38;;;;;;;3.86;100.00;101957.09;8150360;29;20139;-80
2021/12/17 06:29:31;;;;;;;20.38;10.13;;;;;;;3.90;100.00;101955.78;8137898;29;20048;-80
2021/12/17 06:33:41;;;;;;;19.75;9.15;;;;;;;3.95;100.00;101942.53;8146061;29;20139;-80
2021/12/17 06:37:43;;;;;;;23.42;7.97;;;;;;;4.00;100.00;101942.91;8143592;29;20134;-80
2021/12/17 06:41:49;;;;;;;14.68;7.60;;;;;;;4.02;100.00;101938.19;8139411;29;20092;-80
2021/12/17 06:45:57;;;;;;;13.65;6.80;;;;;;;4.01;100.00;101932.88;8150674;29;20102;-81
2021/12/17 06:59:33;;;;;;;10.55;6.03;;;;;;;3.94;100.00;101948.16;8163273;29;20071;-80
2021/12/17 07:17:36;;;;;;;18.88;8.50;;;;;;;3.88;100.00;101949.63;8157433;29;20054;-81
2021/12/17 07:21:54;;;;;;;16.52;8.25;;;;;;;3.87;100.00;101950.63;8148349;29;20511;-80
2021/12/17 07:39:15;;;;;;;17.63;8.88;;;;;;;3.82;100.00;101969.31;8162001;29;20059;-80
2021/12/17 07:43:54;;;;;;;18.60;8.65;;;;;;;3.86;100.00;101962.53;8143249;29;20082;-80
2021/12/17 07:47:57;;;;;;;17.52;10.05;;;;;;;3.94;100.00;101975.44;8172534;29;20055;-81
2021/12/17 07:52:03;;;;;;;18.45;9.73;;;;;;;4.09;100.00;101982.91;8132794;29;20478;-81
2021/12/17 07:56:05;;;;;;;18.77;8.52;;;;;;;4.31;100.00;101988.94;8147898;29;20139;-79
2021/12/17 08:00:10;;;;;;;20.67;9.05;;;;;;;4.60;100.00;101987.84;8138179;29;20142;-80
2021/12/17 08:04:17;;;;;;;17.27;9.55;;;;;;;4.90;100.00;101986.53;8134361;29;20079;-80
2021/12/17 08:08:37;;;;;;;20.20;8.65;;;;;;;5.18;100.00;101984.53;8134676;29;20047;-81
2021/12/17 08:12:55;;;;;;;14.68;8.20;;;;;;;5.46;100.00;101980.56;8141008;29;20044;-80
2021/12/17 08:17:05;;;;;;;15.18;7.93;;;;;;;5.71;100.00;101989.75;8137453;29;20058;-80
2021/12/17 08:25:41;;;;;;;11.85;7.20;;;;;;;6.13;100.00;101999.00;8146322;29;20070;-81
2021/12/17 08:29:53;;;;;;;14.88;7.93;;;;;;;6.33;100.00;101992.16;8144965;29;20182;-80
2021/12/17 08:33:55;;;;;;;16.33;7.65;;;;;;;6.51;100.00;102013.06;8147623;29;20051;-80
2021/12/17 08:37:56;;;;;;;14.98;6.90;;;;;;;6.68;100.00;102019.44;8141704;29;20044;-79
2021/12/17 08:41:57;;;;;;;14.57;6.70;;;;;;;6.82;100.00;102022.34;8147488;29;20063;-81
2021/12/17 08:46:04;;;;;;;13.13;7.63;;;;;;;6.97;100.00;102022.53;8143709;29;20047;-80
2021/12/17 08:50:24;;;;;;;16.02;9.57;;;;;;;7.10;99.83;102035.69;8163256;29;20040;-80
2021/12/17 08:54:28;;;;;;;15.18;9.60;;;;;;;7.22;99.16;102047.16;8139542;29;20059;-81
2021/12/17 08:58:28;;;;;;;14.25;8.43;;;;;;;7.28;97.04;102044.59;8155183;29;20047;-80
2021/12/17 09:02:30;;;;;;;19.23;11.30;;;;;;;7.35;97.04;102050.25;8139178;29;20054;-81
2021/12/17 09:06:46;;;;;;;17.40;9.02;;;;;;;7.46;96.83;102052.59;8137630;29;20075;-81
2021/12/17 09:10:48;;;;;;;15.20;8.27;;;;;;;7.60;96.62;102044.69;8170334;29;20047;-80
2021/12/17 09:14:51;;;;;;;14.40;9.27;;;;;;;7.61;93.84;102040.91;8166733;29;20039;-80
2021/12/17 09:19:27;;;;;;;14.90;8.45;;;;;;;7.69;94.16;102040.91;8137191;29;20042;-80
2021/12/17 09:23:32;;;;;;;17.08;9.10;;;;;;;7.80;93.27;102050.66;8167527;29;20507;-80
2021/12/17 09:27:35;;;;;;;;;;;;;;;7.81;91.15;102050.47;8120853;29;20130;-80
2021/12/17 09:31:41;;;;;;;16.00;7.47;;;;;;;8.01;92.12;102061.88;8155244;29;19934;-80
2021/12/17 09:35:43;;;;;;;13.77;7.88;;;;;;;8.16;89.86;102056.50;8126794;29;20055;-80
2021/12/17 09:39:44;;;;;;;10.48;6.90;;;;;;;8.19;89.98;102056.16;8161594;29;20048;-80
2021/12/17 09:43:45;;;;;;;13.68;6.80;;;;;;;8.20;87.47;102050.44;8148351;29;20135;-80
2021/12/17 09:47:47;;;;;;;11.45;7.50;;;;;;;8.22;88.20;102048.41;8160917;29;20039;-80
2021/12/17 09:51:48;;;;;;;14.93;8.52;;;;;;;8.22;87.22;102044.78;8137840;29;20512;-80
2021/12/17 09:55:50;;;;;;;15.30;8.90;;;;;;;8.15;87.44;102047.41;8159538;29;20056;-80
2021/12/17 09:59:50;;;;;;;14.93;8.60;;;;;;;8.20;88.87;102044.09;8141193;29;20063;-80
2021/12/17 10:04:14;;;;;;;13.95;8.65;;;;;;;8.20;87.19;102050.44;8153383;29;20052;-80
2021/12/17 10:08:19;;;;;;;13.52;7.88;;;;;;;7.95;86.66;102051.63;8155920;29;20191;-80
2021/12/17 10:12:31;;;;;;;12.98;7.53;;;;;;;7.70;86.82;102050.84;8140156;29;20501;-80
2021/12/17 10:16:39;;;;;;;14.35;7.43;;;;;;;7.66;86.88;102036.63;8144492;29;20047;-81
2021/12/17 10:21:00;;;;;;;14.13;6.68;;;;;;;7.83;86.83;102039.31;8130689;29;20040;-80
2021/12/17 10:25:10;;;;;;;9.43;6.05;;;;;;;8.07;87.05;102032.88;8148097;29;20461;-80
2021/12/17 10:29:18;;;;;;;9.13;6.20;;;;;;;8.03;81.66;102032.38;8137823;29;20043;-81
2021/12/17 10:33:23;;;;;;;8.88;5.65;;;;;;;8.13;82.65;102024.75;8152062;29;20047;-81
2021/12/17 10:37:35;;;;;;;11.57;7.00;;;;;;;8.25;83.34;102036.19;8150505;29;20052;-81
2021/12/17 10:41:47;;;;;;;9.50;5.38;;;;;;;8.57;83.26;102029.69;8147729;29;20127;-79
2021/12/17 10:46:27;;;;;;;9.32;5.88;;;;;;;8.63;79.10;102022.59;8153454;29;20075;-80
2021/12/17 10:50:24;;;;;;;11.68;5.93;;;;;;;8.65;80.52;102021.34;8156206;29;20075;-81
2021/12/17 10:54:28;;;;;;;9.65;5.70;;;;;;;8.65;79.47;102026.84;8149383;29;20052;-81
2021/12/17 10:58:30;;;;;;;;;;;;;;;8.80;80.31;102024.16;8127185;29;20114;-80
2021/12/17 11:02:33;;;;;;;10.27;5.78;;;;;;;9.02;81.05;102022.44;8159895;29;19983;-80
2021/12/17 11:06:40;;;;;;;;;;;;;;;9.21;79.34;102020.19;8142590;29;20055;-81
2021/12/17 11:10:55;;;;;;;8.60;5.80;;;;;;;9.15;76.35;102015.44;8162074;29;19915;-80
2021/12/17 11:15:23;;;;;;;10.70;6.20;;;;;;;9.10;78.72;102007.75;8146392;29;20040;-81
2021/12/17 11:19:24;;;;;;;10.20;6.13;;;;;;;9.25;79.22;102011.41;8169665;29;20040;-80
2021/12/17 11:23:25;;;;;;;10.57;5.35;;;;;;;9.27;77.77;102011.19;8162025;29;20494;-80
2021/12/17 11:27:26;;;;;;;13.63;6.72;;;;;;;9.02;75.47;102011.44;8132744;29;20055;-80
2021/12/17 11:31:27;;;;;;;10.02;6.35;;;;;;;8.89;74.74;102014.84;8139300;29;20416;-80
2021/12/17 11:35:29;;;;;;;12.93;6.80;;;;;;;8.93;77.66;102012.56;8142184;29;20067;-81
2021/12/17 11:39:36;;;;;;;12.15;7.47;;;;;;;8.95;77.73;102007.69;8149763;29;20063;-80
2021/12/17 11:43:50;;;;;;;10.82;6.30;;;;;;;8.97;77.57;102004.78;8144783;29;20033;-81
2021/12/17 11:47:57;;;;;;;11.15;6.75;;;;;;;9.12;78.30;102006.53;8145520;29;20052;-80
2021/12/17 11:51:57;;;;;;;10.95;6.88;;;;;;;9.07;76.61;102008.13;8138181;29;20064;-81
2021/12/17 11:56:00;;;;;;;13.02;7.53;;;;;;;9.08;77.42;102001.59;8128611;29;20040;-81
2021/12/17 12:00:01;;;;;;;13.95;8.65;;;;;;;9.00;77.47;101998.91;8134051;29;20083;-81
2021/12/17 12:04:36;;;;;;;15.07;8.27;;;;;;;9.08;77.21;102007.94;8167113;29;20043;-80
2021/12/17 12:08:50;;;;;;;13.15;7.43;;;;;;;9.02;78.19;102003.19;8140600;29;20099;-80
2021/12/17 12:12:51;;;;;;;26.35;9.77;;;;;;;9.10;78.46;102002.25;8150185;29;20056;-81
2021/12/17 12:16:52;;;;;;;20.90;9.25;;;;;;;9.17;78.26;101994.97;8149036;29;20074;-81
2021/12/17 12:20:56;;;;;;;17.23;8.35;;;;;;;9.08;78.13;101982.34;8150994;29;20738;-81
2021/12/17 12:25:29;;;;;;;14.63;8.65;;;;;;;9.13;77.58;101969.75;8143489;29;20048;-80
2021/12/17 12:29:30;;;;;;;14.45;8.18;;;;;;;8.93;77.13;101968.56;8136207;29;20054;-80
2021/12/17 12:33:31;;;;;;;12.02;7.15;;;;;;;8.86;77.97;101970.31;8143481;29;20048;-81
2021/12/17 12:37:31;;;;;;;14.05;7.63;;;;;;;8.58;77.92;101973.66;8128743;29;20070;-80
2021/12/17 12:41:43;;;;;;;14.93;8.23;;;;;;;8.70;78.60;101973.25;8140185;29;20043;-79
2021/12/17 12:45:45;;;;;;;20.58;9.77;;;;;;;8.81;78.29;101983.81;8163668;29;20055;-80
2021/12/17 12:49:59;;;;;;;16.77;8.45;;;;;;;8.79;77.98;101991.38;8159300;29;20469;-81
2021/12/17 12:54:08;;;;;;;14.15;7.38;;;;;;;8.79;78.61;101994.13;8137532;29;20052;-80
2021/12/17 12:58:14;;;;;;;14.27;7.03;;;;;;;8.65;78.87;101982.88;8130253;29;20519;-80
2021/12/17 13:02:15;;;;;;;15.07;8.57;;;;;;;8.67;79.31;101974.47;8151279;29;20087;-80
2021/12/17 13:06:18;;;;;;;14.23;8.07;;;;;;;8.66;78.45;101976.34;8160722;29;20059;-81
2021/12/17 13:10:28;;;;;;;15.40;7.90;;;;;;;8.57;79.31;101984.84;8156222;29;20043;-81
2021/12/17 13:14:31;;;;;;;15.98;8.13;;;;;;;8.67;79.52;101980.81;8147095;29;20035;-81
2021/12/17 13:22:57;;;;;;;13.38;7.15;;;;;;;8.76;79.80;101970.59;8154208;29;20047;-81
2021/12/17 13:27:10;;;;;;;13.80;7.68;;;;;;;8.61;79.60;101970.56;8136646;29;20067;-80
2021/12/17 13:31:11;;;;;;;14.38;7.45;;;;;;;8.63;80.12;101973.97;8154323;29;20103;-80
2021/12/17 13:35:16;;;;;;;14.23;7.75;;;;;;;8.60;79.84;101979.00;8130516;29;20048;-80
2021/12/17 13:39:16;;;;;;;13.05;7.38;;;;;;;8.30;79.04;101973.34;8153962;29;20044;-80
2021/12/17 13:43:26;;;;;;;14.38;7.38;;;;;;;8.41;80.00;101972.94;8155934;29;20047;-80
2021/12/17 13:47:48;;;;;;;13.30;6.82;;;;;;;8.37;80.46;101976.22;8131978;29;20128;-81
2021/12/17 13:51:48;;;;;;;12.35;6.18;;;;;;;8.20;81.54;101976.31;8137046;29;20055;-80
2021/12/17 13:55:50;;;;;;;12.20;6.63;;;;;;;7.92;81.52;101977.84;8148196;29;20082;-80
2021/12/17 13:59:51;;;;;;;9.90;4.90;;;;;;;7.99;81.88;101974.19;8136843;29;20493;-80
2021/12/17 14:03:51;;;;;;;10.57;5.30;;;;;;;7.97;82.03;101983.63;8141875;29;20387;-80
2021/12/17 14:07:57;;;;;;;12.73;5.20;;;;;;;7.85;82.30;101979.59;8145102;29;20048;-80
2021/12/17 14:12:10;;;;;;;11.43;5.88;;;;;;;7.90;82.39;101977.16;8141332;29;20048;-80
2021/12/17 14:16:12;;;;;;;8.45;4.60;;;;;;;7.98;82.13;101966.16;8133849;29;20432;-80
2021/12/17 14:20:19;;;;;;;9.03;5.17;;;;;;;8.00;82.85;101977.78;8142916;29;20409;-80
2021/12/17 14:24:29;;;;;;;13.05;6.20;;;;;;;7.83;82.70;101987.16;8146053;29;20065;-80
2021/12/17 14:28:31;;;;;;;11.07;5.60;;;;;;;7.85;82.63;101979.59;8144155;28;20099;-80
2021/12/17 14:32:38;;;;;;;;;;;;;;;7.84;82.52;101984.22;8153341;29;20417;-80
2021/12/17 14:36:40;;;;;;;10.95;5.75;;;;;;;7.86;82.80;101978.56;8138254;29;20312;-79
2021/12/17 14:40:48;;;;;;;12.43;5.15;;;;;;;7.78;83.61;101986.84;8154617;29;20044;-80
2021/12/17 14:44:54;;;;;;;10.55;5.13;;;;;;;7.76;83.36;101979.66;8134996;29;20078;-79
2021/12/17 15:02:14;;;;;;;9.38;4.90;;;;;;;7.67;84.31;101980.69;8132335;29;20094;-79
2021/12/17 15:06:16;;;;;;;10.27;4.60;;;;;;;7.63;84.57;101981.25;8165107;29;20054;-80
2021/12/17 15:10:23;;;;;;;10.38;5.05;;;;;;;7.57;84.39;101980.06;8151745;29;20489;-80
2021/12/17 15:14:24;;;;;;;11.13;5.60;;;;;;;7.54;84.67;101977.66;8145667;29;20058;-80
2021/12/17 15:18:50;;;;;;;12.93;5.60;;;;;;;7.55;84.86;101984.84;8160045;29;20179;-79
2021/12/17 15:22:51;;;;;;;10.05;5.10;;;;;;;7.55;84.89;101968.41;8160665;29;20122;-79
2021/12/17 15:26:52;;;;;;;12.93;5.40;;;;;;;7.57;84.87;101977.31;8149098;29;20070;-80
2021/12/17 15:31:00;;;;;;;9.32;4.78;;;;;;;7.60;85.51;101976.97;8155654;29;20042;-79
2021/12/17 15:35:01;;;;;;;10.88;5.45;;;;;;;7.60;85.53;101974.22;8152384;29;20050;-79
2021/12/17 15:39:01;;;;;;;10.32;5.30;;;;;;;7.54;86.16;101977.66;8130860;29;20040;-79
2021/12/17 15:43:02;;;;;;;12.30;6.40;;;;;;;7.51;86.12;101972.53;8149603;29;20044;-80
2021/12/17 15:47:05;;;;;;;14.98;5.65;;;;;;;7.49;86.30;101955.38;8167359;29;20047;-79
2021/12/17 15:51:06;;;;;;;14.05;6.30;;;;;;;7.41;86.32;101953.56;8158733;29;20051;-80
2021/12/17 15:55:07;;;;;;;14.70;5.72;;;;;;;7.43;86.71;101961.59;8149870;29;20098;-79
2021/12/17 15:59:07;;;;;;;11.02;5.43;;;;;;;7.48;86.51;101957.28;8148768;29;20048;-80
2021/12/17 16:03:09;;;;;;;15.23;6.82;;;;;;;7.48;86.30;101962.78;8150120;29;20066;-80
2021/12/17 16:07:11;;;;;;;10.85;6.18;;;;;;;7.44;86.95;101960.56;8155714;29;20047;-80
2021/12/17 16:23:44;;;;;;;;;;;;;;;7.35;88.31;101965.22;8156380;29;20300;-80
2021/12/17 16:27:44;;;;;;;11.57;6.35;;;;;;;7.38;87.31;101962.13;8138103;29;19986;-80
2021/12/17 16:31:47;;;;;;;10.63;5.65;;;;;;;7.33;87.81;101955.47;8142447;29;20103;-79
2021/12/17 16:35:47;;;;;;;11.88;5.90;;;;;;;7.34;87.72;101959.91;8158409;29;20069;-79
2021/12/17 16:39:49;;;;;;;16.73;6.88;;;;;;;7.30;87.30;101956.66;8161833;28;20560;-79
2021/12/17 16:43:58;;;;;;;12.05;6.20;;;;;;;7.20;87.49;101954.13;8150768;29;20040;-79
2021/12/17 16:48:05;;;;;;;11.80;6.00;;;;;;;7.19;87.83;101970.75;8151399;29;20060;-79
2021/12/17 16:52:05;;;;;;;12.40;5.15;;;;;;;7.16;88.58;101971.94;8155804;29;20047;-80
2021/12/17 16:56:07;;;;;;;14.13;6.72;;;;;;;7.15;89.35;101969.38;8151450;29;20059;-79
2021/12/17 17:00:08;;;;;;;10.23;6.05;;;;;;;7.14;90.01;101964.91;8149169;29;20063;-80
2021/12/17 17:04:10;;;;;;;12.38;5.70;;;;;;;7.04;90.36;101971.44;8144737;29;20130;-79
2021/12/17 17:08:10;;;;;;;11.25;5.63;;;;;;;7.05;90.33;101966.84;8154371;29;20056;-80
2021/12/17 17:12:12;;;;;;;10.55;4.63;;;;;;;7.04;90.46;101967.84;8137132;29;20071;-79
2021/12/17 17:16:17;;;;;;;12.37;5.57;;;;;;;7.07;90.27;101971.09;8142366;29;20052;-80
2021/12/17 17:20:18;;;;;;;11.23;6.68;;;;;;;7.00;90.70;101966.50;8163861;29;20600;-80
2021/12/17 17:24:23;;;;;;;13.38;6.38;;;;;;;6.98;91.14;101966.66;8154534;29;20568;-80
2021/12/17 17:28:24;;;;;;;12.63;5.72;;;;;;;6.99;90.67;101962.91;8146481;29;20853;-79
2021/12/17 17:32:25;;;;;;;15.70;8.48;;;;;;;6.96;91.02;101970.59;8134449;29;20055;-80
2021/12/17 17:36:26;;;;;;;20.33;10.10;;;;;;;6.96;90.85;101976.09;8153061;29;20494;-79
2021/12/17 17:40:27;;;;;;;15.05;7.00;;;;;;;6.98;91.39;101977.63;8142861;29;20040;-80
2021/12/17 17:44:27;;;;;;;13.85;6.03;;;;;;;6.97;91.48;101969.59;8147764;29;20095;-80
2021/12/17 17:48:28;;;;;;;11.32;6.05;;;;;;;6.98;91.44;101976.78;8167493;29;20067;-80
2021/12/17 17:52:28;;;;;;;13.85;5.88;;;;;;;6.94;90.64;101964.47;8154503;29;20199;-80
2021/12/17 17:56:29;;;;;;;12.23;6.50;;;;;;;6.92;91.50;101967.34;8138067;29;20461;-79
2021/12/17 18:00:30;;;;;;;10.52;5.80;;;;;;;6.94;91.50;101978.16;8132259;29;20068;-80
2021/12/17 18:04:31;;;;;;;9.13;5.13;;;;;;;6.93;91.82;101973.69;8138866;29;20044;-80
2021/12/17 18:08:33;;;;;;;11.70;5.55;;;;;;;6.92;91.50;101975.56;8164398;29;20098;-79
2021/12/17 18:12:33;;;;;;;12.05;6.30;;;;;;;6.92;91.85;101981.06;8137130;29;20056;-80
2021/12/17 18:16:34;;;;;;;14.02;6.65;;;;;;;6.93;91.58;101973.69;8169319;28;20051;-79
2021/12/17 18:20:34;;;;;;;12.20;5.95;;;;;;;6.90;92.21;101988.63;8154903;29;20620;-80
2021/12/17 18:24:36;;;;;;;14.70;7.00;;;;;;;6.87;92.08;101980.75;8125039;29;20799;-80
2021/12/17 18:28:36;;;;;;;13.90;7.28;;;;;;;6.78;92.31;101993.59;8147213;29;20058;-80
2021/12/17 18:32:38;;;;;;;16.50;7.45;;;;;;;6.73;92.49;101993.25;8147780;29;20512;-79
2021/12/17 18:36:38;;;;;;;15.02;7.18;;;;;;;6.69;92.73;101988.25;8132638;29;20076;-80
2021/12/17 18:40:49;;;;;;;16.10;8.05;;;;;;;6.66;93.16;101983.97;8144853;29;20047;-80
2021/12/17 18:44:50;;;;;;;14.60;7.15;;;;;;;6.66;92.68;101983.13;8154292;29;20065;-80
2021/12/17 18:48:50;;;;;;;15.50;7.40;;;;;;;6.60;93.06;101985.53;8172554;29;20055;-80
2021/12/17 18:52:51;;;;;;;16.65;7.22;;;;;;;6.55;93.14;101985.19;8150218;29;20501;-80
2021/12/17 18:56:51;;;;;;;14.80;7.35;;;;;;;6.51;93.34;101985.69;8155934;29;20056;-80
2021/12/17 19:00:52;;;;;;;14.65;7.82;;;;;;;6.41;93.27;101995.97;8137694;29;20048;-80
2021/12/17 19:04:53;;;;;;;16.48;7.63;;;;;;;6.32;93.55;102001.41;8137308;29;20051;-80
2021/12/17 19:08:54;;;;;;;14.82;7.10;;;;;;;6.22;93.95;101989.78;8156803;29;20119;-80
2021/12/17 19:12:54;;;;;;;15.23;8.05;;;;;;;6.08;93.96;101985.78;8132984;29;20644;-80
2021/12/17 19:16:55;;;;;;;15.23;8.68;;;;;;;5.92;94.71;101972.06;8133509;29;20159;-80
2021/12/17 19:20:57;;;;;;;14.57;7.00;;;;;;;5.73;94.82;101975.91;8162499;29;20054;-80
2021/12/17 19:24:59;;;;;;;16.87;8.10;;;;;;;5.53;95.09;101971.69;8167629;29;20036;-80
2021/12/17 19:29:01;;;;;;;17.95;7.47;;;;;;;5.32;95.73;101970.22;8140321;29;20039;-80
2021/12/17 19:33:01;;;;;;;16.70;7.95;;;;;;;5.13;95.87;101975.94;8162467;29;20062;-80
2021/12/17 19:37:02;;;;;;;14.98;7.30;;;;;;;4.94;96.35;101975.16;8159249;29;20068;-81
2021/12/17 19:41:03;;;;;;;15.85;7.45;;;;;;;4.82;97.13;101972.81;8142766;29;20047;-80
2021/12/17 19:45:05;;;;;;;17.67;7.68;;;;;;;4.66;97.09;101977.13;8151401;29;20071;-80
2021/12/17 19:53:07;;;;;;;17.10;7.85;;;;;;;4.43;97.01;101970.44;8153839;29;20056;-80
2021/12/17 19:57:07;;;;;;;16.42;7.35;;;;;;;4.33;97.98;101968.66;8152549;29;20498;-80
2021/12/17 20:01:08;;;;;;;15.45;7.10;;;;;;;4.25;98.14;101973.19;8134329;29;20067;-81
2021/12/17 20:05:09;;;;;;;18.25;7.05;;;;;;;4.17;98.73;101968.50;8174770;29;20505;-81
2021/12/17 20:09:12;;;;;;;18.70;8.38;;;;;;;4.08;98.26;101964.00;8152728;29;20135;-80
2021/12/17 20:13:14;;;;;;;16.70;8.77;;;;;;;4.01;98.60;101976.50;8173140;29;20050;-79
2021/12/17 20:17:18;;;;;;;17.25;7.78;;;;;;;3.96;98.95;101957.91;8176183;29;20064;-79
2021/12/17 20:21:19;;;;;;;20.48;7.90;;;;;;;3.92;99.67;101971.97;8176667;29;20132;-81
2021/12/17 20:25:20;;;;;;;18.88;8.55;;;;;;;3.89;99.81;101975.88;8193513;29;20051;-79
2021/12/17 20:29:21;;;;;;;17.50;8.05;;;;;;;3.89;99.76;101978.59;8147570;29;20054;-79
2021/12/17 20:33:22;;;;;;;21.10;8.82;;;;;;;3.87;100.00;101983.38;8144366;29;20413;-81
2021/12/17 20:37:23;;;;;;;20.15;7.97;;;;;;;3.81;100.00;101992.16;8150769;29;20048;-82
2021/12/17 20:41:29;;;;;;;20.83;8.15;;;;;;;3.76;100.00;101995.34;8160495;29;20075;-81
2021/12/17 20:45:32;;;;;;;21.38;8.15;;;;;;;3.73;100.00;101990.19;8142868;29;20412;-80
2021/12/17 20:49:34;;;;;;;20.98;7.93;;;;;;;3.68;100.00;101992.50;8164163;29;20047;-79
2021/12/17 20:53:35;;;;;;;19.58;8.32;;;;;;;3.65;100.00;101992.81;8157263;29;20060;-81
2021/12/17 20:57:38;;;;;;;19.80;8.45;;;;;;;3.60;100.00;101998.72;8147852;28;20040;-80
2021/12/17 21:01:46;;;;;;;18.65;8.02;;;;;;;3.57;100.00;101999.03;8135520;29;20107;-80
2021/12/17 21:05:48;;;;;;;20.92;9.52;;;;;;;3.54;100.00;101996.59;8139087;29;20402;-81
2021/12/17 21:09:48;;;;;;;25.65;9.07;;;;;;;3.52;100.00;102003.22;8141654;29;20141;-80
2021/12/17 21:13:58;;;;;;;21.30;9.07;;;;;;;3.48;100.00;102008.09;8170361;29;20398;-81
2021/12/17 21:17:59;;;;;;;26.23;9.35;;;;;;;3.44;100.00;102003.94;8139784;29;20047;-81
2021/12/17 21:22:00;;;;;;;23.05;10.50;;;;;;;3.41;100.00;101996.91;8137839;29;20047;-80
2021/12/17 21:26:00;;;;;;;23.73;10.07;;;;;;;3.42;100.00;101997.78;8144929;29;20079;-80
2021/12/17 21:30:01;;;;;;;19.65;9.38;;;;;;;3.39;100.00;101998.97;8164125;29;20062;-80
2021/12/17 21:34:02;;;;;;;22.73;9.18;;;;;;;3.35;100.00;101992.06;8125301;29;20039;-80
2021/12/17 21:38:05;;;;;;;24.88;10.18;;;;;;;3.33;100.00;101993.22;8136762;29;20044;-80
2021/12/17 21:42:07;;;;;;;29.40;10.38;;;;;;;3.31;100.00;101997.97;8140800;29;20044;-80
2021/12/17 21:46:08;;;;;;;23.52;9.98;;;;;;;3.31;100.00;101989.81;8141190;29;20436;-80
2021/12/17 21:50:13;;;;;;;27.02;10.25;;;;;;;3.30;100.00;101991.69;8144241;29;20048;-80
2021/12/17 21:54:13;;;;;;;25.83;10.50;;;;;;;3.28;100.00;101993.69;8151900;29;20044;-81
2021/12/17 21:58:14;;;;;;;27.42;10.82;;;;;;;3.25;100.00;101991.25;8143473;29;20071;-80